sensor_id;sensor_type;location;lat;lon;timestamp;temperature;humidity
17845;DHT22;9047;53.486;10.218;2023-10-31T00:01:49;11.40;99.90
17845;DHT22;9047;53.486;10.218;2023-10-31T00:04:18;11.50;99.90
17845;DHT22;9047;53.486;10.218;2023-10-31T00:06:47;11.50;99.90
17845;DHT22;9047;53.486;10.218;2023-10-31T00:09:14;11.50;99.90
17845;DHT22;9047;53.486;10.218;2023-10-31T00:11:43;11.40;99.90
17845;DHT22;9047;53.486;10.218;2023-10-31T00:14:13;11.50;99.90
17845;DHT22;9047;53.486;10.218;2023-10-31T00:16:40;11.50;99.90
17845;DHT22;9047;53.486;10.218;2023-10-31T00:19:07;11.50;99.90
17845;DHT22;9047;53.486;10.218;2023-10-31T00:21:36;11.50;99.90
17845;DHT22;9047;53.486;10.218;2023-10-31T00:24:17;11.50;99.90
17845;DHT22;9047;53.486;10.218;2023-10-31T00:26:48;11.60;99.90
17845;DHT22;9047;53.486;10.218;2023-10-31T00:29:29;11.60;99.90
17845;DHT22;9047;53.486;10.218;2023-10-31T00:31:57;11.60;99.90
17845;DHT22;9047;53.486;10.218;2023-10-31T00:34:27;11.60;99.90
17845;DHT22;9047;53.486;10.218;2023-10-31T00:36:55;11.60;99.90
17845;DHT22;9047;53.486;10.218;2023-10-31T00:39:23;11.60;99.90
17845;DHT22;9047;53.486;10.218;2023-10-31T00:41:52;11.60;99.90
17845;DHT22;9047;53.486;10.218;2023-10-31T00:44:22;11.60;99.90
17845;DHT22;9047;53.486;10.218;2023-10-31T00:46:50;11.60;99.90
17845;DHT22;9047;53.486;10.218;2023-10-31T00:49:18;11.70;99.90
17845;DHT22;9047;53.486;10.218;2023-10-31T00:51:48;11.60;99.90
17845;DHT22;9047;53.486;10.218;2023-10-31T00:54:15;11.60;99.90
17845;DHT22;9047;53.486;10.218;2023-10-31T00:56:43;11.60;99.90
17845;DHT22;9047;53.486;10.218;2023-10-31T00:59:13;11.60;99.90
17845;DHT22;9047;53.486;10.218;2023-10-31T01:01:47;11.70;99.90
17845;DHT22;9047;53.486;10.218;2023-10-31T01:04:14;11.70;99.90
17845;DHT22;9047;53.486;10.218;2023-10-31T01:06:50;11.60;99.90
17845;DHT22;9047;53.486;10.218;2023-10-31T01:09:17;11.70;99.90
17845;DHT22;9047;53.486;10.218;2023-10-31T01:11:48;11.70;99.90
17845;DHT22;9047;53.486;10.218;2023-10-31T01:14:17;11.60;99.90
17845;DHT22;9047;53.486;10.218;2023-10-31T01:16:44;11.60;99.90
17845;DHT22;9047;53.486;10.218;2023-10-31T01:19:13;11.60;99.90
17845;DHT22;9047;53.486;10.218;2023-10-31T01:21:40;11.60;99.90
17845;DHT22;9047;53.486;10.218;2023-10-31T01:24:09;11.60;99.90
17845;DHT22;9047;53.486;10.218;2023-10-31T01:26:40;11.60;99.90
17845;DHT22;9047;53.486;10.218;2023-10-31T01:29:07;11.60;99.90
17845;DHT22;9047;53.486;10.218;2023-10-31T01:31:40;11.60;99.90
17845;DHT22;9047;53.486;10.218;2023-10-31T01:34:20;11.60;99.90
17845;DHT22;9047;53.486;10.218;2023-10-31T01:37:03;11.60;99.90
17845;DHT22;9047;53.486;10.218;2023-10-31T01:39:35;11.60;99.90
17845;DHT22;9047;53.486;10.218;2023-10-31T01:42:05;11.50;99.90
17845;DHT22;9047;53.486;10.218;2023-10-31T01:44:39;11.60;99.90
17845;DHT22;9047;53.486;10.218;2023-10-31T01:47:11;11.60;99.90
17845;DHT22;9047;53.486;10.218;2023-10-31T01:49:42;11.60;99.90
17845;DHT22;9047;53.486;10.218;2023-10-31T01:52:09;11.60;99.90
17845;DHT22;9047;53.486;10.218;2023-10-31T01:54:37;11.60;99.90
17845;DHT22;9047;53.486;10.218;2023-10-31T01:57:07;11.60;99.90
17845;DHT22;9047;53.486;10.218;2023-10-31T01:59:37;11.60;99.90
17845;DHT22;9047;53.486;10.218;2023-10-31T02:02:08;11.50;99.90
17845;DHT22;9047;53.486;10.218;2023-10-31T02:04:36;11.60;99.90
17845;DHT22;9047;53.486;10.218;2023-10-31T02:07:07;11.60;99.90
17845;DHT22;9047;53.486;10.218;2023-10-31T02:09:35;11.50;99.90
17845;DHT22;9047;53.486;10.218;2023-10-31T02:12:10;11.50;99.90
17845;DHT22;9047;53.486;10.218;2023-10-31T02:14:38;11.50;99.90
17845;DHT22;9047;53.486;10.218;2023-10-31T02:17:04;11.50;99.90
17845;DHT22;9047;53.486;10.218;2023-10-31T02:19:34;11.50;99.90
17845;DHT22;9047;53.486;10.218;2023-10-31T02:22:06;11.50;99.90
17845;DHT22;9047;53.486;10.218;2023-10-31T02:24:34;11.50;99.90
17845;DHT22;9047;53.486;10.218;2023-10-31T02:27:03;11.50;99.90
17845;DHT22;9047;53.486;10.218;2023-10-31T02:29:32;11.60;99.90
17845;DHT22;9047;53.486;10.218;2023-10-31T02:31:59;11.50;99.90
17845;DHT22;9047;53.486;10.218;2023-10-31T02:34:29;11.50;99.90
17845;DHT22;9047;53.486;10.218;2023-10-31T02:37:00;11.50;99.90
17845;DHT22;9047;53.486;10.218;2023-10-31T02:39:32;11.60;99.90
17845;DHT22;9047;53.486;10.218;2023-10-31T02:41:59;11.50;99.90
17845;DHT22;9047;53.486;10.218;2023-10-31T02:44:27;11.50;99.90
17845;DHT22;9047;53.486;10.218;2023-10-31T02:46:56;11.50;99.90
17845;DHT22;9047;53.486;10.218;2023-10-31T02:49:24;11.50;99.90
17845;DHT22;9047;53.486;10.218;2023-10-31T02:51:51;11.50;99.90
17845;DHT22;9047;53.486;10.218;2023-10-31T02:54:18;11.50;99.90
17845;DHT22;9047;53.486;10.218;2023-10-31T02:56:48;11.50;99.90
17845;DHT22;9047;53.486;10.218;2023-10-31T02:59:17;11.50;99.90
17845;DHT22;9047;53.486;10.218;2023-10-31T03:01:45;11.60;99.90
17845;DHT22;9047;53.486;10.218;2023-10-31T03:04:14;11.50;99.90
17845;DHT22;9047;53.486;10.218;2023-10-31T03:06:51;11.60;99.90
17845;DHT22;9047;53.486;10.218;2023-10-31T03:09:20;11.60;99.90
17845;DHT22;9047;53.486;10.218;2023-10-31T03:11:52;11.60;99.90
17845;DHT22;9047;53.486;10.218;2023-10-31T03:14:19;11.60;99.90
17845;DHT22;9047;53.486;10.218;2023-10-31T03:16:47;11.60;99.90
17845;DHT22;9047;53.486;10.218;2023-10-31T03:19:14;11.60;99.90
17845;DHT22;9047;53.486;10.218;2023-10-31T03:21:42;11.60;99.90
17845;DHT22;9047;53.486;10.218;2023-10-31T03:24:10;11.60;99.90
17845;DHT22;9047;53.486;10.218;2023-10-31T03:26:40;11.60;99.90
17845;DHT22;9047;53.486;10.218;2023-10-31T03:29:21;11.60;99.90
17845;DHT22;9047;53.486;10.218;2023-10-31T03:31:48;11.60;99.90
17845;DHT22;9047;53.486;10.218;2023-10-31T03:34:17;11.70;99.90
17845;DHT22;9047;53.486;10.218;2023-10-31T03:36:47;11.70;99.90
17845;DHT22;9047;53.486;10.218;2023-10-31T03:39:14;11.70;99.90
17845;DHT22;9047;53.486;10.218;2023-10-31T03:41:44;11.70;99.90
17845;DHT22;9047;53.486;10.218;2023-10-31T03:44:14;11.70;99.90
17845;DHT22;9047;53.486;10.218;2023-10-31T03:46:41;11.70;99.90
17845;DHT22;9047;53.486;10.218;2023-10-31T03:49:09;11.70;99.90
17845;DHT22;9047;53.486;10.218;2023-10-31T03:51:37;11.70;99.90
17845;DHT22;9047;53.486;10.218;2023-10-31T03:54:04;11.70;99.90
17845;DHT22;9047;53.486;10.218;2023-10-31T03:56:39;11.70;99.90
17845;DHT22;9047;53.486;10.218;2023-10-31T04:02:35;11.70;99.90
17845;DHT22;9047;53.486;10.218;2023-10-31T04:05:03;11.70;99.90
17845;DHT22;9047;53.486;10.218;2023-10-31T04:07:31;11.80;99.90
17845;DHT22;9047;53.486;10.218;2023-10-31T04:09:58;11.80;99.90
17845;DHT22;9047;53.486;10.218;2023-10-31T04:12:26;11.80;99.90
17845;DHT22;9047;53.486;10.218;2023-10-31T04:14:54;11.80;99.90
17845;DHT22;9047;53.486;10.218;2023-10-31T04:17:23;11.80;99.90
17845;DHT22;9047;53.486;10.218;2023-10-31T04:19:54;11.80;99.90
17845;DHT22;9047;53.486;10.218;2023-10-31T04:22:21;11.80;99.90
17845;DHT22;9047;53.486;10.218;2023-10-31T04:24:48;11.80;99.90
17845;DHT22;9047;53.486;10.218;2023-10-31T04:27:16;11.80;99.90
17845;DHT22;9047;53.486;10.218;2023-10-31T04:29:44;11.90;99.90
17845;DHT22;9047;53.486;10.218;2023-10-31T04:32:11;11.80;99.90
17845;DHT22;9047;53.486;10.218;2023-10-31T04:34:39;11.90;99.90
17845;DHT22;9047;53.486;10.218;2023-10-31T04:37:08;11.90;99.90
17845;DHT22;9047;53.486;10.218;2023-10-31T04:39:35;11.90;99.90
17845;DHT22;9047;53.486;10.218;2023-10-31T04:42:03;11.90;99.90
17845;DHT22;9047;53.486;10.218;2023-10-31T04:44:31;11.90;99.90
17845;DHT22;9047;53.486;10.218;2023-10-31T04:46:59;12.00;99.90
17845;DHT22;9047;53.486;10.218;2023-10-31T04:49:26;12.00;99.90
17845;DHT22;9047;53.486;10.218;2023-10-31T04:51:56;12.00;99.90
17845;DHT22;9047;53.486;10.218;2023-10-31T04:54:25;12.00;99.90
17845;DHT22;9047;53.486;10.218;2023-10-31T04:56:52;12.00;99.90
17845;DHT22;9047;53.486;10.218;2023-10-31T04:59:21;12.00;99.90
17845;DHT22;9047;53.486;10.218;2023-10-31T05:01:49;12.10;99.90
17845;DHT22;9047;53.486;10.218;2023-10-31T05:04:22;12.10;99.90
17845;DHT22;9047;53.486;10.218;2023-10-31T05:06:49;12.10;99.90
17845;DHT22;9047;53.486;10.218;2023-10-31T05:09:17;12.10;99.90
17845;DHT22;9047;53.486;10.218;2023-10-31T05:11:48;12.10;99.90
17845;DHT22;9047;53.486;10.218;2023-10-31T05:14:16;12.20;99.90
17845;DHT22;9047;53.486;10.218;2023-10-31T05:16:43;12.10;99.90
17845;DHT22;9047;53.486;10.218;2023-10-31T05:19:14;12.10;99.90
17845;DHT22;9047;53.486;10.218;2023-10-31T05:21:41;12.20;99.90
17845;DHT22;9047;53.486;10.218;2023-10-31T05:24:09;12.20;99.90
17845;DHT22;9047;53.486;10.218;2023-10-31T05:26:39;12.20;99.90
17845;DHT22;9047;53.486;10.218;2023-10-31T05:29:14;12.20;99.90
17845;DHT22;9047;53.486;10.218;2023-10-31T05:31:41;12.20;99.90
17845;DHT22;9047;53.486;10.218;2023-10-31T05:34:16;12.20;99.90
17845;DHT22;9047;53.486;10.218;2023-10-31T05:36:43;12.20;99.90
17845;DHT22;9047;53.486;10.218;2023-10-31T05:39:11;12.20;99.90
17845;DHT22;9047;53.486;10.218;2023-10-31T05:41:38;12.20;99.90
17845;DHT22;9047;53.486;10.218;2023-10-31T05:44:06;12.20;99.90
17845;DHT22;9047;53.486;10.218;2023-10-31T05:46:39;12.20;99.90
17845;DHT22;9047;53.486;10.218;2023-10-31T05:49:08;12.20;99.90
17845;DHT22;9047;53.486;10.218;2023-10-31T05:51:36;12.20;99.90
17845;DHT22;9047;53.486;10.218;2023-10-31T05:54:06;12.20;99.90
17845;DHT22;9047;53.486;10.218;2023-10-31T05:56:35;12.20;99.90
17845;DHT22;9047;53.486;10.218;2023-10-31T05:59:03;12.20;99.90
17845;DHT22;9047;53.486;10.218;2023-10-31T06:01:30;12.20;99.90
17845;DHT22;9047;53.486;10.218;2023-10-31T06:03:58;12.20;99.90
17845;DHT22;9047;53.486;10.218;2023-10-31T06:06:31;12.20;99.90
17845;DHT22;9047;53.486;10.218;2023-10-31T06:08:58;12.30;99.90
17845;DHT22;9047;53.486;10.218;2023-10-31T06:11:26;12.20;99.90
17845;DHT22;9047;53.486;10.218;2023-10-31T06:13:54;12.30;99.90
17845;DHT22;9047;53.486;10.218;2023-10-31T06:16:21;12.30;99.90
17845;DHT22;9047;53.486;10.218;2023-10-31T06:18:49;12.20;99.90
17845;DHT22;9047;53.486;10.218;2023-10-31T06:21:33;12.30;99.90
17845;DHT22;9047;53.486;10.218;2023-10-31T06:24:01;12.30;99.90
17845;DHT22;9047;53.486;10.218;2023-10-31T06:26:28;12.30;99.90
17845;DHT22;9047;53.486;10.218;2023-10-31T06:29:03;12.30;99.90
17845;DHT22;9047;53.486;10.218;2023-10-31T06:31:31;12.30;99.90
17845;DHT22;9047;53.486;10.218;2023-10-31T06:34:02;12.30;99.90
17845;DHT22;9047;53.486;10.218;2023-10-31T06:36:30;12.30;99.90
17845;DHT22;9047;53.486;10.218;2023-10-31T06:39:01;12.30;99.90
17845;DHT22;9047;53.486;10.218;2023-10-31T06:41:29;12.30;99.90
17845;DHT22;9047;53.486;10.218;2023-10-31T06:43:59;12.30;99.90
17845;DHT22;9047;53.486;10.218;2023-10-31T06:46:28;12.30;99.90
17845;DHT22;9047;53.486;10.218;2023-10-31T06:48:56;12.30;99.90
17845;DHT22;9047;53.486;10.218;2023-10-31T06:51:25;12.30;99.90
17845;DHT22;9047;53.486;10.218;2023-10-31T06:53:53;12.30;99.90
17845;DHT22;9047;53.486;10.218;2023-10-31T06:56:22;12.30;99.90
17845;DHT22;9047;53.486;10.218;2023-10-31T06:58:50;12.30;99.90
17845;DHT22;9047;53.486;10.218;2023-10-31T07:01:18;12.30;99.90
17845;DHT22;9047;53.486;10.218;2023-10-31T07:03:46;12.30;99.90
17845;DHT22;9047;53.486;10.218;2023-10-31T07:06:16;12.30;99.90
17845;DHT22;9047;53.486;10.218;2023-10-31T07:08:43;12.30;99.90
17845;DHT22;9047;53.486;10.218;2023-10-31T07:11:10;12.20;99.90
17845;DHT22;9047;53.486;10.218;2023-10-31T07:13:40;12.20;99.90
17845;DHT22;9047;53.486;10.218;2023-10-31T07:16:07;12.20;99.90
17845;DHT22;9047;53.486;10.218;2023-10-31T07:18:36;12.20;99.90
17845;DHT22;9047;53.486;10.218;2023-10-31T07:21:04;12.10;99.90
17845;DHT22;9047;53.486;10.218;2023-10-31T07:23:33;12.10;99.90
17845;DHT22;9047;53.486;10.218;2023-10-31T07:26:00;12.00;99.90
17845;DHT22;9047;53.486;10.218;2023-10-31T07:28:31;12.00;99.90
17845;DHT22;9047;53.486;10.218;2023-10-31T07:31:04;11.90;99.90
17845;DHT22;9047;53.486;10.218;2023-10-31T07:33:31;11.90;99.90
17845;DHT22;9047;53.486;10.218;2023-10-31T07:36:00;11.80;99.90
17845;DHT22;9047;53.486;10.218;2023-10-31T07:38:29;11.80;99.90
17845;DHT22;9047;53.486;10.218;2023-10-31T07:40:57;11.80;99.90
17845;DHT22;9047;53.486;10.218;2023-10-31T07:43:26;11.80;99.90
17845;DHT22;9047;53.486;10.218;2023-10-31T07:45:55;11.80;99.90
17845;DHT22;9047;53.486;10.218;2023-10-31T07:48:23;11.70;99.90
17845;DHT22;9047;53.486;10.218;2023-10-31T07:50:51;11.70;99.90
17845;DHT22;9047;53.486;10.218;2023-10-31T07:53:28;11.70;99.90
17845;DHT22;9047;53.486;10.218;2023-10-31T07:56:04;11.70;99.90
17845;DHT22;9047;53.486;10.218;2023-10-31T07:58:32;11.70;99.90
17845;DHT22;9047;53.486;10.218;2023-10-31T08:01:04;11.60;99.90
17845;DHT22;9047;53.486;10.218;2023-10-31T08:03:37;11.60;99.90
17845;DHT22;9047;53.486;10.218;2023-10-31T08:06:06;11.60;99.90
17845;DHT22;9047;53.486;10.218;2023-10-31T08:08:33;11.60;99.90
17845;DHT22;9047;53.486;10.218;2023-10-31T08:11:01;11.60;99.90
17845;DHT22;9047;53.486;10.218;2023-10-31T08:13:29;11.50;99.90
17845;DHT22;9047;53.486;10.218;2023-10-31T08:15:57;11.50;99.90
17845;DHT22;9047;53.486;10.218;2023-10-31T08:18:25;11.40;99.90
17845;DHT22;9047;53.486;10.218;2023-10-31T08:20:57;11.40;99.90
17845;DHT22;9047;53.486;10.218;2023-10-31T08:23:25;11.30;99.90
17845;DHT22;9047;53.486;10.218;2023-10-31T08:25:54;11.30;99.90
17845;DHT22;9047;53.486;10.218;2023-10-31T08:28:27;11.30;99.90
17845;DHT22;9047;53.486;10.218;2023-10-31T08:30:55;11.30;99.90
17845;DHT22;9047;53.486;10.218;2023-10-31T08:33:22;11.30;99.90
17845;DHT22;9047;53.486;10.218;2023-10-31T08:35:50;11.20;99.90
17845;DHT22;9047;53.486;10.218;2023-10-31T08:38:26;11.20;99.90
17845;DHT22;9047;53.486;10.218;2023-10-31T08:40:54;11.20;99.90
17845;DHT22;9047;53.486;10.218;2023-10-31T08:43:57;11.20;99.90
17845;DHT22;9047;53.486;10.218;2023-10-31T08:46:25;11.30;99.90
17845;DHT22;9047;53.486;10.218;2023-10-31T08:48:54;11.20;99.90
17845;DHT22;9047;53.486;10.218;2023-10-31T08:51:23;11.20;99.90
17845;DHT22;9047;53.486;10.218;2023-10-31T08:53:54;11.20;99.90
17845;DHT22;9047;53.486;10.218;2023-10-31T08:56:28;11.20;99.90
17845;DHT22;9047;53.486;10.218;2023-10-31T08:58:56;11.20;99.90
17845;DHT22;9047;53.486;10.218;2023-10-31T09:01:24;11.20;99.90
17845;DHT22;9047;53.486;10.218;2023-10-31T09:03:51;11.20;99.90
17845;DHT22;9047;53.486;10.218;2023-10-31T09:06:19;11.20;99.90
17845;DHT22;9047;53.486;10.218;2023-10-31T09:08:57;11.20;99.90
17845;DHT22;9047;53.486;10.218;2023-10-31T09:11:26;11.30;99.90
17845;DHT22;9047;53.486;10.218;2023-10-31T09:13:54;11.20;99.90
17845;DHT22;9047;53.486;10.218;2023-10-31T09:16:23;11.30;99.90
17845;DHT22;9047;53.486;10.218;2023-10-31T09:18:52;11.30;99.90
17845;DHT22;9047;53.486;10.218;2023-10-31T09:21:19;11.30;99.90
17845;DHT22;9047;53.486;10.218;2023-10-31T09:23:52;11.30;99.90
17845;DHT22;9047;53.486;10.218;2023-10-31T09:26:29;11.40;99.90
17845;DHT22;9047;53.486;10.218;2023-10-31T09:28:58;11.40;99.90
17845;DHT22;9047;53.486;10.218;2023-10-31T09:31:30;11.50;99.90
17845;DHT22;9047;53.486;10.218;2023-10-31T09:34:04;11.60;99.90
17845;DHT22;9047;53.486;10.218;2023-10-31T09:36:33;11.60;99.90
17845;DHT22;9047;53.486;10.218;2023-10-31T09:39:02;11.60;99.90
17845;DHT22;9047;53.486;10.218;2023-10-31T09:41:32;11.50;99.90
17845;DHT22;9047;53.486;10.218;2023-10-31T09:44:00;11.50;99.90
17845;DHT22;9047;53.486;10.218;2023-10-31T09:46:30;11.40;99.90
17845;DHT22;9047;53.486;10.218;2023-10-31T09:49:10;11.30;99.90
17845;DHT22;9047;53.486;10.218;2023-10-31T09:51:39;11.30;99.90
17845;DHT22;9047;53.486;10.218;2023-10-31T09:54:22;11.30;99.90
17845;DHT22;9047;53.486;10.218;2023-10-31T09:57:09;11.20;99.90
17845;DHT22;9047;53.486;10.218;2023-10-31T09:59:39;11.20;99.90
17845;DHT22;9047;53.486;10.218;2023-10-31T10:02:07;11.10;99.90
17845;DHT22;9047;53.486;10.218;2023-10-31T10:04:36;11.10;99.90
17845;DHT22;9047;53.486;10.218;2023-10-31T10:07:18;11.00;99.90
17845;DHT22;9047;53.486;10.218;2023-10-31T10:09:47;11.00;99.90
17845;DHT22;9047;53.486;10.218;2023-10-31T10:12:21;10.90;99.90
17845;DHT22;9047;53.486;10.218;2023-10-31T10:14:51;10.80;99.90
17845;DHT22;9047;53.486;10.218;2023-10-31T10:17:24;10.70;99.90
17845;DHT22;9047;53.486;10.218;2023-10-31T10:20:11;10.70;99.90
17845;DHT22;9047;53.486;10.218;2023-10-31T10:23:23;10.70;99.90
17845;DHT22;9047;53.486;10.218;2023-10-31T10:26:08;10.60;99.90
17845;DHT22;9047;53.486;10.218;2023-10-31T10:28:52;10.60;99.90
17845;DHT22;9047;53.486;10.218;2023-10-31T10:31:27;10.60;99.90
17845;DHT22;9047;53.486;10.218;2023-10-31T10:33:54;10.70;99.90
17845;DHT22;9047;53.486;10.218;2023-10-31T10:36:39;10.70;99.90
17845;DHT22;9047;53.486;10.218;2023-10-31T10:39:19;10.70;99.90
17845;DHT22;9047;53.486;10.218;2023-10-31T10:41:55;10.70;99.90
17845;DHT22;9047;53.486;10.218;2023-10-31T10:44:35;10.60;99.90
17845;DHT22;9047;53.486;10.218;2023-10-31T10:47:12;10.60;99.90
17845;DHT22;9047;53.486;10.218;2023-10-31T10:49:57;10.60;99.90
17845;DHT22;9047;53.486;10.218;2023-10-31T10:52:44;10.60;99.90
17845;DHT22;9047;53.486;10.218;2023-10-31T10:55:36;10.70;99.90
17845;DHT22;9047;53.486;10.218;2023-10-31T10:58:17;10.70;99.90
17845;DHT22;9047;53.486;10.218;2023-10-31T11:00:58;10.80;99.90
17845;DHT22;9047;53.486;10.218;2023-10-31T11:03:40;10.80;99.90
17845;DHT22;9047;53.486;10.218;2023-10-31T11:06:10;10.90;99.90
17845;DHT22;9047;53.486;10.218;2023-10-31T11:08:58;10.90;99.90
17845;DHT22;9047;53.486;10.218;2023-10-31T11:11:29;10.90;99.90
17845;DHT22;9047;53.486;10.218;2023-10-31T11:14:00;11.00;99.90
17845;DHT22;9047;53.486;10.218;2023-10-31T11:16:48;11.00;99.90
17845;DHT22;9047;53.486;10.218;2023-10-31T11:19:20;11.00;99.90
17845;DHT22;9047;53.486;10.218;2023-10-31T11:21:54;11.10;99.90
17845;DHT22;9047;53.486;10.218;2023-10-31T11:24:23;11.10;99.90
17845;DHT22;9047;53.486;10.218;2023-10-31T11:26:59;11.20;99.90
17845;DHT22;9047;53.486;10.218;2023-10-31T11:29:47;11.20;99.90
17845;DHT22;9047;53.486;10.218;2023-10-31T11:32:16;11.30;99.90
17845;DHT22;9047;53.486;10.218;2023-10-31T11:34:48;11.30;99.90
17845;DHT22;9047;53.486;10.218;2023-10-31T11:37:22;11.30;99.90
17845;DHT22;9047;53.486;10.218;2023-10-31T11:40:16;11.30;99.90
17845;DHT22;9047;53.486;10.218;2023-10-31T11:42:47;11.30;99.90
17845;DHT22;9047;53.486;10.218;2023-10-31T11:45:25;11.40;99.90
17845;DHT22;9047;53.486;10.218;2023-10-31T11:47:59;11.40;99.90
17845;DHT22;9047;53.486;10.218;2023-10-31T11:50:37;11.50;99.90
17845;DHT22;9047;53.486;10.218;2023-10-31T11:53:07;11.60;99.90
17845;DHT22;9047;53.486;10.218;2023-10-31T11:55:44;11.60;99.90
17845;DHT22;9047;53.486;10.218;2023-10-31T11:58:18;11.60;99.90
17845;DHT22;9047;53.486;10.218;2023-10-31T12:00:50;11.70;99.90
17845;DHT22;9047;53.486;10.218;2023-10-31T12:03:25;11.80;99.90
17845;DHT22;9047;53.486;10.218;2023-10-31T12:05:56;11.90;99.90
17845;DHT22;9047;53.486;10.218;2023-10-31T12:08:26;11.90;99.90
17845;DHT22;9047;53.486;10.218;2023-10-31T12:11:03;11.90;99.90
17845;DHT22;9047;53.486;10.218;2023-10-31T12:13:36;11.90;99.90
17845;DHT22;9047;53.486;10.218;2023-10-31T12:16:05;11.80;99.90
17845;DHT22;9047;53.486;10.218;2023-10-31T12:18:37;11.80;99.90
17845;DHT22;9047;53.486;10.218;2023-10-31T12:21:06;11.60;99.90
17845;DHT22;9047;53.486;10.218;2023-10-31T12:23:37;11.50;99.90
17845;DHT22;9047;53.486;10.218;2023-10-31T12:26:10;11.60;99.90
17845;DHT22;9047;53.486;10.218;2023-10-31T12:28:40;11.70;99.90
17845;DHT22;9047;53.486;10.218;2023-10-31T12:31:12;11.70;99.90
17845;DHT22;9047;53.486;10.218;2023-10-31T12:33:45;11.70;99.90
17845;DHT22;9047;53.486;10.218;2023-10-31T12:36:31;11.60;99.90
17845;DHT22;9047;53.486;10.218;2023-10-31T12:39:07;11.70;99.90
17845;DHT22;9047;53.486;10.218;2023-10-31T12:41:37;11.80;99.90
17845;DHT22;9047;53.486;10.218;2023-10-31T12:44:13;11.80;99.90
17845;DHT22;9047;53.486;10.218;2023-10-31T12:46:46;11.90;99.90
17845;DHT22;9047;53.486;10.218;2023-10-31T12:49:21;11.90;99.90
17845;DHT22;9047;53.486;10.218;2023-10-31T12:51:58;11.90;99.90
17845;DHT22;9047;53.486;10.218;2023-10-31T12:54:35;11.80;99.90
17845;DHT22;9047;53.486;10.218;2023-10-31T12:57:09;11.70;99.90
17845;DHT22;9047;53.486;10.218;2023-10-31T12:59:39;11.70;99.90
17845;DHT22;9047;53.486;10.218;2023-10-31T13:02:16;11.70;99.90
17845;DHT22;9047;53.486;10.218;2023-10-31T13:04:50;11.80;99.90
17845;DHT22;9047;53.486;10.218;2023-10-31T13:07:26;11.80;99.90
17845;DHT22;9047;53.486;10.218;2023-10-31T13:09:59;11.80;99.90
17845;DHT22;9047;53.486;10.218;2023-10-31T13:12:30;11.80;99.90
17845;DHT22;9047;53.486;10.218;2023-10-31T13:15:09;11.80;99.90
17845;DHT22;9047;53.486;10.218;2023-10-31T13:17:39;11.80;99.90
17845;DHT22;9047;53.486;10.218;2023-10-31T13:20:35;11.80;99.90
17845;DHT22;9047;53.486;10.218;2023-10-31T13:23:03;11.80;99.90
17845;DHT22;9047;53.486;10.218;2023-10-31T13:25:32;11.80;99.90
17845;DHT22;9047;53.486;10.218;2023-10-31T13:28:00;11.80;99.90
17845;DHT22;9047;53.486;10.218;2023-10-31T13:30:30;11.80;99.90
17845;DHT22;9047;53.486;10.218;2023-10-31T13:33:03;11.80;99.90
17845;DHT22;9047;53.486;10.218;2023-10-31T13:35:52;11.90;99.90
17845;DHT22;9047;53.486;10.218;2023-10-31T13:38:21;11.90;99.90
17845;DHT22;9047;53.486;10.218;2023-10-31T13:40:51;11.90;99.90
17845;DHT22;9047;53.486;10.218;2023-10-31T13:43:27;11.90;99.90
17845;DHT22;9047;53.486;10.218;2023-10-31T13:45:57;11.90;99.90
17845;DHT22;9047;53.486;10.218;2023-10-31T13:48:26;11.90;99.90
17845;DHT22;9047;53.486;10.218;2023-10-31T13:50:58;11.80;99.90
17845;DHT22;9047;53.486;10.218;2023-10-31T13:53:26;11.80;99.90
17845;DHT22;9047;53.486;10.218;2023-10-31T13:55:56;11.80;99.90
17845;DHT22;9047;53.486;10.218;2023-10-31T13:58:24;11.70;99.90
17845;DHT22;9047;53.486;10.218;2023-10-31T14:00:52;11.60;99.90
17845;DHT22;9047;53.486;10.218;2023-10-31T14:03:20;11.50;99.90
17845;DHT22;9047;53.486;10.218;2023-10-31T14:05:49;11.40;99.90
17845;DHT22;9047;53.486;10.218;2023-10-31T14:08:20;11.30;99.90
17845;DHT22;9047;53.486;10.218;2023-10-31T14:10:48;11.30;99.90
17845;DHT22;9047;53.486;10.218;2023-10-31T14:13:18;11.20;99.90
17845;DHT22;9047;53.486;10.218;2023-10-31T14:15:55;11.20;99.90
17845;DHT22;9047;53.486;10.218;2023-10-31T14:18:22;11.10;99.90
17845;DHT22;9047;53.486;10.218;2023-10-31T14:20:50;11.00;99.90
17845;DHT22;9047;53.486;10.218;2023-10-31T14:23:23;10.90;99.90
17845;DHT22;9047;53.486;10.218;2023-10-31T14:25:53;10.80;99.90
17845;DHT22;9047;53.486;10.218;2023-10-31T14:28:22;10.70;99.90
17845;DHT22;9047;53.486;10.218;2023-10-31T14:30:51;10.50;99.90
17845;DHT22;9047;53.486;10.218;2023-10-31T14:33:29;10.40;99.90
17845;DHT22;9047;53.486;10.218;2023-10-31T14:36:02;10.30;99.90
17845;DHT22;9047;53.486;10.218;2023-10-31T14:38:34;10.20;99.90
17845;DHT22;9047;53.486;10.218;2023-10-31T14:41:13;10.10;99.90
17845;DHT22;9047;53.486;10.218;2023-10-31T14:43:47;10.00;99.90
17845;DHT22;9047;53.486;10.218;2023-10-31T14:46:20;10.00;99.90
17845;DHT22;9047;53.486;10.218;2023-10-31T14:48:50;9.90;99.90
17845;DHT22;9047;53.486;10.218;2023-10-31T14:51:20;9.80;99.90
17845;DHT22;9047;53.486;10.218;2023-10-31T14:53:58;9.70;99.90
17845;DHT22;9047;53.486;10.218;2023-10-31T14:56:30;9.60;99.90
17845;DHT22;9047;53.486;10.218;2023-10-31T14:59:02;9.50;99.90
17845;DHT22;9047;53.486;10.218;2023-10-31T15:01:31;9.40;99.90
17845;DHT22;9047;53.486;10.218;2023-10-31T15:03:59;9.30;99.90
17845;DHT22;9047;53.486;10.218;2023-10-31T15:06:26;9.20;99.90
17845;DHT22;9047;53.486;10.218;2023-10-31T15:08:55;9.20;99.90
17845;DHT22;9047;53.486;10.218;2023-10-31T15:11:22;9.10;99.90
17845;DHT22;9047;53.486;10.218;2023-10-31T15:13:50;9.00;99.90
17845;DHT22;9047;53.486;10.218;2023-10-31T15:16:17;9.00;99.90
17845;DHT22;9047;53.486;10.218;2023-10-31T15:18:46;8.90;99.90
17845;DHT22;9047;53.486;10.218;2023-10-31T15:21:13;8.90;99.90
17845;DHT22;9047;53.486;10.218;2023-10-31T15:23:42;8.80;99.90
17845;DHT22;9047;53.486;10.218;2023-10-31T15:26:10;8.70;99.90
17845;DHT22;9047;53.486;10.218;2023-10-31T15:28:41;8.70;99.90
17845;DHT22;9047;53.486;10.218;2023-10-31T15:31:11;8.60;99.90
17845;DHT22;9047;53.486;10.218;2023-10-31T15:33:39;8.50;99.90
17845;DHT22;9047;53.486;10.218;2023-10-31T15:36:10;8.40;99.90
17845;DHT22;9047;53.486;10.218;2023-10-31T15:38:38;8.30;99.90
17845;DHT22;9047;53.486;10.218;2023-10-31T15:41:07;8.30;99.90
17845;DHT22;9047;53.486;10.218;2023-10-31T15:43:36;8.20;99.90
17845;DHT22;9047;53.486;10.218;2023-10-31T15:46:03;8.10;99.90
17845;DHT22;9047;53.486;10.218;2023-10-31T15:48:33;8.00;99.90
17845;DHT22;9047;53.486;10.218;2023-10-31T15:51:00;7.90;99.90
17845;DHT22;9047;53.486;10.218;2023-10-31T15:53:27;7.90;99.90
17845;DHT22;9047;53.486;10.218;2023-10-31T15:55:57;7.80;99.90
17845;DHT22;9047;53.486;10.218;2023-10-31T15:58:25;7.70;99.90
17845;DHT22;9047;53.486;10.218;2023-10-31T16:00:58;7.60;99.90